createdAt,value
2018-06-25T00:00:50.593Z,8.80
2018-06-25T00:01:50.537Z,8.40
2018-06-25T00:02:50.472Z,8.70
2018-06-25T00:03:50.406Z,9.00
2018-06-25T00:04:50.335Z,8.70
2018-06-25T00:05:50.279Z,8.60
2018-06-25T00:06:50.222Z,8.80
2018-06-25T00:07:50.151Z,8.70
2018-06-25T00:08:50.091Z,7.90
2018-06-25T00:09:50.042Z,8.20
2018-06-25T00:10:49.958Z,8.50
2018-06-25T00:11:49.896Z,8.10
2018-06-25T00:12:49.836Z,8.50
2018-06-25T00:13:49.772Z,8.30
2018-06-25T00:14:49.709Z,8.00
2018-06-25T00:15:49.648Z,7.70
2018-06-25T00:16:49.582Z,7.90
2018-06-25T00:17:49.524Z,7.90
2018-06-25T00:18:49.460Z,7.60
2018-06-25T00:19:49.393Z,8.40
2018-06-25T00:20:49.340Z,7.60
2018-06-25T00:21:49.268Z,7.60
2018-06-25T00:22:49.204Z,7.90
2018-06-25T00:23:49.136Z,7.60
2018-06-25T00:24:49.077Z,7.70
2018-06-25T00:25:49.021Z,8.40
2018-06-25T00:26:48.949Z,9.70
2018-06-25T00:27:48.888Z,8.60
2018-06-25T00:28:48.841Z,8.90
2018-06-25T00:29:48.763Z,9.90
2018-06-25T00:30:48.696Z,10.20
2018-06-25T00:31:48.635Z,9.50
2018-06-25T00:32:48.574Z,9.20
2018-06-25T00:33:48.513Z,9.40
2018-06-25T00:34:48.446Z,8.80
2018-06-25T00:35:48.383Z,9.00
2018-06-25T00:36:48.321Z,9.90
2018-06-25T00:37:48.257Z,10.30
2018-06-25T00:38:48.199Z,9.80
2018-06-25T00:39:48.136Z,10.40
2018-06-25T00:40:48.073Z,11.40
2018-06-25T00:41:48.009Z,11.60
2018-06-25T00:42:47.940Z,10.70
2018-06-25T00:43:47.876Z,11.20
2018-06-25T00:44:47.819Z,11.20
2018-06-25T00:45:47.750Z,12.00
2018-06-25T00:46:47.689Z,11.60
2018-06-25T00:47:47.627Z,11.70
2018-06-25T00:48:47.561Z,11.30
2018-06-25T00:49:47.505Z,10.60
2018-06-25T00:50:47.438Z,11.50
2018-06-25T00:51:47.370Z,11.80
2018-06-25T00:52:47.310Z,12.30
2018-06-25T00:53:47.244Z,12.10
2018-06-25T00:54:47.179Z,11.70
2018-06-25T00:55:47.115Z,11.30
2018-06-25T00:56:47.054Z,11.70
2018-06-25T00:57:46.988Z,12.10
2018-06-25T00:58:46.928Z,11.70
2018-06-25T00:59:46.865Z,11.10
2018-06-25T01:00:46.807Z,11.80
2018-06-25T01:01:46.739Z,12.00
2018-06-25T01:02:46.671Z,11.80
2018-06-25T01:03:46.607Z,11.30
2018-06-25T01:04:46.555Z,12.40
2018-06-25T01:05:46.482Z,11.80
2018-06-25T01:06:46.421Z,11.10
2018-06-25T01:07:46.353Z,11.70
2018-06-25T01:08:46.290Z,11.60
2018-06-25T01:09:46.229Z,11.30
2018-06-25T01:10:46.173Z,11.20
2018-06-25T01:11:46.111Z,12.50
2018-06-25T01:12:46.044Z,11.60
2018-06-25T01:13:45.977Z,11.60
2018-06-25T01:14:45.914Z,12.50
2018-06-25T01:15:45.848Z,12.30
2018-06-25T01:16:45.790Z,11.90
2018-06-25T01:17:45.721Z,11.80
2018-06-25T01:18:45.663Z,12.60
2018-06-25T01:19:45.600Z,12.60
2018-06-25T01:20:45.533Z,12.40
2018-06-25T01:21:45.471Z,12.00
2018-06-25T01:22:45.409Z,12.20
2018-06-25T01:23:45.348Z,12.20
2018-06-25T01:24:45.283Z,12.00
2018-06-25T01:25:45.221Z,12.80
2018-06-25T01:26:45.151Z,13.00
2018-06-25T01:27:45.093Z,13.00
2018-06-25T01:28:45.055Z,13.90
2018-06-25T01:29:44.964Z,13.60
2018-06-25T01:30:44.909Z,13.30
2018-06-25T01:31:44.839Z,14.10
2018-06-25T01:32:44.840Z,13.60
2018-06-25T01:33:44.707Z,15.00
2018-06-25T01:34:44.658Z,14.20
2018-06-25T01:35:44.580Z,14.10
2018-06-25T01:36:44.517Z,15.10
2018-06-25T01:37:44.456Z,12.60
2018-06-25T01:38:44.391Z,13.60
2018-06-25T01:39:44.331Z,13.00
2018-06-25T01:40:44.265Z,13.30
2018-06-25T01:41:44.211Z,12.80
2018-06-25T01:42:44.142Z,13.50
2018-06-25T01:43:44.077Z,13.00
2018-06-25T01:44:44.016Z,12.90
2018-06-25T01:45:43.949Z,13.20
2018-06-25T01:46:43.897Z,11.90
2018-06-25T01:47:43.821Z,12.50
2018-06-25T01:48:43.759Z,12.40
2018-06-25T01:49:43.691Z,11.90
2018-06-25T01:50:43.633Z,12.50
2018-06-25T01:51:43.569Z,12.50
2018-06-25T01:52:43.503Z,12.70
2018-06-25T01:53:43.436Z,12.80
2018-06-25T01:54:43.377Z,12.90
2018-06-25T01:55:43.316Z,12.10
2018-06-25T01:56:43.252Z,12.30
2018-06-25T01:57:43.187Z,12.80
2018-06-25T01:58:43.119Z,11.80
2018-06-25T01:59:43.064Z,12.30
2018-06-25T02:00:43.003Z,11.80
2018-06-25T02:01:42.932Z,11.90
2018-06-25T02:02:42.870Z,11.50
2018-06-25T02:03:42.805Z,11.50
2018-06-25T02:04:42.742Z,11.90
2018-06-25T02:05:42.679Z,12.30
2018-06-25T02:06:42.614Z,11.70
2018-06-25T02:07:42.551Z,12.00
2018-06-25T02:08:42.487Z,11.40
2018-06-25T02:09:42.426Z,11.30
2018-06-25T02:10:42.360Z,11.00
2018-06-25T02:11:42.298Z,11.10
2018-06-25T02:12:42.241Z,11.30
2018-06-25T02:13:42.174Z,10.50
2018-06-25T02:14:42.110Z,11.10
2018-06-25T02:15:42.041Z,10.70
2018-06-25T02:16:41.981Z,10.40
2018-06-25T02:17:41.920Z,10.90
2018-06-25T02:18:41.850Z,10.90
2018-06-25T02:19:41.788Z,10.50
2018-06-25T02:20:41.721Z,10.60
2018-06-25T02:21:41.662Z,10.60
2018-06-25T02:22:41.600Z,9.80
2018-06-25T02:23:41.536Z,11.20
2018-06-25T02:24:41.469Z,10.90
2018-06-25T02:25:41.410Z,11.10
2018-06-25T02:26:41.348Z,10.60
2018-06-25T02:27:41.281Z,10.20
2018-06-25T02:28:41.221Z,11.10
2018-06-25T02:29:41.152Z,10.60
2018-06-25T02:30:41.093Z,10.40
2018-06-25T02:31:41.021Z,10.60
2018-06-25T02:32:40.960Z,10.90
2018-06-25T02:33:40.904Z,11.60
2018-06-25T02:34:40.834Z,10.90
2018-06-25T02:35:40.775Z,10.40
2018-06-25T02:36:40.711Z,10.10
2018-06-25T02:37:40.646Z,10.40
2018-06-25T02:38:40.681Z,10.70
2018-06-25T02:39:40.515Z,10.80
2018-06-25T02:40:40.456Z,10.20
2018-06-25T02:41:40.393Z,10.60
2018-06-25T02:42:40.325Z,11.10
2018-06-25T02:43:40.263Z,10.50
2018-06-25T02:44:40.205Z,10.20
2018-06-25T02:45:40.141Z,10.80
2018-06-25T02:46:40.072Z,10.70
2018-06-25T02:47:40.035Z,10.70
2018-06-25T02:48:39.946Z,10.20
2018-06-25T02:49:39.885Z,11.80
2018-06-25T02:50:39.816Z,10.50
2018-06-25T02:51:39.757Z,10.80
2018-06-25T02:52:39.694Z,11.10
2018-06-25T02:53:39.632Z,11.20
2018-06-25T02:54:39.565Z,11.10
2018-06-25T02:55:39.504Z,10.40
2018-06-25T02:56:39.440Z,11.50
2018-06-25T02:57:39.379Z,10.70
2018-06-25T02:58:39.312Z,11.20
2018-06-25T02:59:39.254Z,11.00
2018-06-25T03:00:39.190Z,11.20
2018-06-25T03:01:39.119Z,11.90
2018-06-25T03:02:39.054Z,10.70
2018-06-25T03:03:38.996Z,12.20
2018-06-25T03:04:38.928Z,11.60
2018-06-25T03:05:38.863Z,12.60
2018-06-25T03:06:38.804Z,11.40
2018-06-25T03:07:38.742Z,11.60
2018-06-25T03:08:38.676Z,11.40
2018-06-25T03:09:38.615Z,11.70
2018-06-25T03:10:38.555Z,11.30
2018-06-25T03:11:38.493Z,11.90
2018-06-25T03:12:38.423Z,11.80
2018-06-25T03:13:38.361Z,10.90
2018-06-25T03:14:38.300Z,11.20
2018-06-25T03:15:38.232Z,11.80
2018-06-25T03:16:38.177Z,10.80
2018-06-25T03:17:38.117Z,11.70
2018-06-25T03:18:38.050Z,11.70
2018-06-25T03:19:37.977Z,11.10
2018-06-25T03:20:37.915Z,12.20
2018-06-25T03:21:37.852Z,11.90
2018-06-25T03:22:37.786Z,12.10
2018-06-25T03:23:37.719Z,11.80
2018-06-25T03:24:37.673Z,11.40
2018-06-25T03:25:37.592Z,11.70
2018-06-25T03:26:37.536Z,11.70
2018-06-25T03:27:37.472Z,11.10
2018-06-25T03:28:37.400Z,10.50
2018-06-25T03:29:37.342Z,11.90
2018-06-25T03:30:37.278Z,11.60
2018-06-25T03:31:37.216Z,11.80
2018-06-25T03:32:37.160Z,12.90
2018-06-25T03:33:37.089Z,12.60
2018-06-25T03:34:37.026Z,13.30
2018-06-25T03:35:36.956Z,12.90
2018-06-25T03:36:36.894Z,13.20
2018-06-25T03:37:36.846Z,13.00
2018-06-25T03:38:36.771Z,12.40
2018-06-25T03:39:36.708Z,14.20
2018-06-25T03:40:36.643Z,14.20
2018-06-25T03:41:36.580Z,14.30
2018-06-25T03:42:36.513Z,13.70
2018-06-25T03:43:36.450Z,13.80
2018-06-25T03:44:36.391Z,13.00
2018-06-25T03:45:36.338Z,12.40
2018-06-25T03:46:36.260Z,13.60
2018-06-25T03:47:36.194Z,13.20
2018-06-25T03:48:36.131Z,13.40
2018-06-25T03:49:36.071Z,13.30
2018-06-25T03:50:36.011Z,13.40
2018-06-25T03:51:35.941Z,14.10
2018-06-25T03:52:35.878Z,12.20
2018-06-25T03:53:35.821Z,14.30
2018-06-25T03:54:35.750Z,13.10
2018-06-25T03:55:35.685Z,13.00
2018-06-25T03:56:35.624Z,12.70
2018-06-25T03:57:35.556Z,13.30
2018-06-25T03:58:35.497Z,11.70
2018-06-25T03:59:35.435Z,11.30
2018-06-25T04:00:35.377Z,13.00
2018-06-25T04:01:35.310Z,11.90
2018-06-25T04:02:35.246Z,12.00
2018-06-25T04:03:35.179Z,12.60
2018-06-25T04:04:35.126Z,12.10
2018-06-25T04:05:35.052Z,12.30
2018-06-25T04:06:34.992Z,12.70
2018-06-25T04:07:34.924Z,12.60
2018-06-25T04:08:34.857Z,12.50
2018-06-25T04:09:34.796Z,11.70
2018-06-25T04:10:34.736Z,14.00
2018-06-25T04:11:34.674Z,12.90
2018-06-25T04:12:34.606Z,13.50
2018-06-25T04:13:34.545Z,12.60
2018-06-25T04:14:34.482Z,12.50
2018-06-25T04:15:34.416Z,13.60
2018-06-25T04:16:34.355Z,13.80
2018-06-25T04:17:34.301Z,13.70
2018-06-25T04:18:34.227Z,14.00
2018-06-25T04:19:34.162Z,14.20
2018-06-25T04:20:34.135Z,13.10
2018-06-25T04:21:34.034Z,12.50
2018-06-25T04:22:33.978Z,12.70
2018-06-25T04:23:33.908Z,12.80
2018-06-25T04:24:33.851Z,12.20
2018-06-25T04:25:33.799Z,11.20
2018-06-25T04:26:33.720Z,11.40
2018-06-25T04:27:33.653Z,11.90
2018-06-25T04:28:33.591Z,11.80
2018-06-25T04:29:33.538Z,12.40
2018-06-25T04:30:33.491Z,12.70
2018-06-25T04:31:33.405Z,13.30
2018-06-25T04:32:33.341Z,12.90
2018-06-25T04:33:33.284Z,13.50
2018-06-25T04:34:33.212Z,12.80
2018-06-25T04:35:33.156Z,13.10
2018-06-25T04:36:33.087Z,13.30
2018-06-25T04:37:33.022Z,13.90
2018-06-25T04:38:32.952Z,14.00
2018-06-25T04:39:32.890Z,14.40
2018-06-25T04:40:32.830Z,15.20
2018-06-25T04:41:32.771Z,15.30
2018-06-25T04:42:32.706Z,14.10
2018-06-25T04:43:32.641Z,14.60
2018-06-25T04:44:32.590Z,15.40
2018-06-25T04:45:32.515Z,14.10
2018-06-25T04:46:32.449Z,14.00
2018-06-25T04:47:32.385Z,13.80
2018-06-25T04:48:32.324Z,13.80
2018-06-25T04:49:32.267Z,13.20
2018-06-25T04:50:32.219Z,14.00
2018-06-25T04:51:32.135Z,13.10
2018-06-25T04:52:32.066Z,14.30
2018-06-25T04:53:32.002Z,14.20
2018-06-25T04:54:31.954Z,13.80
2018-06-25T04:55:31.879Z,14.40
2018-06-25T04:56:31.817Z,13.10
2018-06-25T04:57:31.751Z,13.50
2018-06-25T04:58:31.686Z,12.60
2018-06-25T04:59:31.634Z,12.40
2018-06-25T05:00:31.607Z,13.00
2018-06-25T05:01:31.535Z,14.00
2018-06-25T05:02:31.441Z,12.80
2018-06-25T05:03:31.373Z,13.00
2018-06-25T05:04:31.308Z,13.10
2018-06-25T05:05:31.254Z,13.40
2018-06-25T05:06:31.183Z,12.00
2018-06-25T05:07:31.129Z,13.50
2018-06-25T05:08:31.061Z,14.00
2018-06-25T05:09:30.992Z,13.80
2018-06-25T05:10:30.927Z,13.90
2018-06-25T05:11:30.864Z,14.20
2018-06-25T05:12:30.802Z,14.20
2018-06-25T05:13:30.737Z,14.30
2018-06-25T05:14:30.680Z,15.30
2018-06-25T05:15:30.623Z,13.90
2018-06-25T05:16:30.552Z,14.50
2018-06-25T05:17:30.489Z,13.90
2018-06-25T05:18:30.422Z,12.40
2018-06-25T05:19:30.362Z,15.10
2018-06-25T05:20:30.303Z,15.60
2018-06-25T05:21:30.237Z,16.00
2018-06-25T05:22:30.172Z,14.90
2018-06-25T05:23:30.176Z,14.90
2018-06-25T05:24:30.048Z,15.10
2018-06-25T05:25:29.984Z,14.50
2018-06-25T05:26:29.932Z,13.50
2018-06-25T05:27:29.854Z,13.80
2018-06-25T05:28:29.797Z,14.90
2018-06-25T05:29:29.741Z,14.20
2018-06-25T05:30:29.664Z,14.00
2018-06-25T05:31:29.601Z,15.00
2018-06-25T05:32:29.537Z,12.10
2018-06-25T05:33:29.472Z,13.80
2018-06-25T05:34:29.416Z,13.50
2018-06-25T05:35:29.355Z,15.60
2018-06-25T05:36:29.286Z,15.70
2018-06-25T05:37:29.226Z,14.80
2018-06-25T05:38:29.162Z,15.50
2018-06-25T05:39:29.141Z,15.10
2018-06-25T05:40:29.037Z,15.30
2018-06-25T05:41:28.971Z,16.40
2018-06-25T05:42:28.904Z,16.10
2018-06-25T05:43:28.869Z,15.20
2018-06-25T05:44:28.786Z,16.00
2018-06-25T05:45:28.713Z,16.00
2018-06-25T05:46:38.269Z,15.00
2018-06-25T05:48:21.954Z,17.40
2018-06-25T05:49:29.494Z,16.30
2018-06-25T05:51:15.192Z,16.20
2018-06-25T05:52:15.067Z,15.10
2018-06-25T05:54:17.026Z,16.10
2018-06-25T05:55:08.292Z,16.70
2018-06-25T05:56:08.220Z,17.60
2018-06-25T05:57:08.151Z,17.50
2018-06-25T05:58:08.087Z,16.30
2018-06-25T05:59:08.031Z,16.00
2018-06-25T06:00:07.962Z,17.20
2018-06-25T06:01:07.894Z,17.00
2018-06-25T06:02:07.830Z,16.80
2018-06-25T06:03:07.775Z,17.40
2018-06-25T06:04:07.703Z,14.70
2018-06-25T06:05:07.644Z,15.00
2018-06-25T06:06:07.581Z,16.30
2018-06-25T06:07:07.520Z,15.50
2018-06-25T06:08:07.455Z,16.20
2018-06-25T06:09:07.466Z,15.90
2018-06-25T06:10:07.333Z,17.40
2018-06-25T06:11:07.264Z,16.00
2018-06-25T06:12:07.216Z,16.80
2018-06-25T06:13:07.149Z,16.90
2018-06-25T06:14:07.091Z,16.30
2018-06-25T06:15:07.018Z,16.40
2018-06-25T06:16:06.945Z,15.60
2018-06-25T06:17:06.893Z,15.90
2018-06-25T06:18:06.838Z,16.50
2018-06-25T06:19:06.762Z,17.90
2018-06-25T06:20:06.704Z,17.40
2018-06-25T06:21:06.639Z,17.50
2018-06-25T06:22:06.574Z,17.80
2018-06-25T06:23:06.505Z,17.50
2018-06-25T06:24:06.443Z,16.50
2018-06-25T06:25:06.384Z,15.70
2018-06-25T06:26:06.435Z,16.60
2018-06-25T06:27:06.257Z,16.70
2018-06-25T06:28:06.196Z,16.70
2018-06-25T06:29:06.136Z,16.80
2018-06-25T06:30:06.067Z,16.50
2018-06-25T06:31:06.007Z,16.40
2018-06-25T06:32:05.967Z,16.00
2018-06-25T06:33:05.894Z,16.00
2018-06-25T06:34:05.829Z,15.90
2018-06-25T06:35:13.407Z,15.20
2018-06-25T06:36:59.065Z,14.90
2018-06-25T06:37:58.959Z,14.90
2018-06-25T06:39:52.357Z,16.30
2018-06-25T06:40:52.192Z,15.70
2018-06-25T06:42:47.093Z,15.40
2018-06-25T06:43:46.383Z,16.20
2018-06-25T06:45:39.690Z,16.40
2018-06-25T06:46:39.588Z,15.90
2018-06-25T06:48:33.895Z,15.60
2018-06-25T06:49:33.802Z,15.70
2018-06-25T06:51:34.760Z,15.50
2018-06-25T06:52:27.011Z,14.40
2018-06-25T06:53:26.986Z,14.30
2018-06-25T06:54:26.898Z,16.00
2018-06-25T06:55:26.856Z,15.20
2018-06-25T06:56:26.754Z,15.10
2018-06-25T06:57:34.355Z,12.80
2018-06-25T06:59:21.002Z,14.20
2018-06-25T07:00:20.903Z,14.20
2018-06-25T07:02:15.192Z,13.50
2018-06-25T07:03:15.096Z,13.50
2018-06-25T07:04:15.034Z,14.60
2018-06-25T07:05:14.967Z,14.50
2018-06-25T07:06:14.909Z,14.40
2018-06-25T07:07:14.848Z,14.20
2018-06-25T07:08:14.781Z,14.90
2018-06-25T07:09:14.728Z,13.80
2018-06-25T07:10:14.690Z,10.50
2018-06-25T07:11:14.590Z,12.40
2018-06-25T07:12:14.537Z,12.30
2018-06-25T07:13:14.466Z,12.60
2018-06-25T07:14:14.418Z,11.60
2018-06-25T07:15:14.339Z,10.50
2018-06-25T07:16:14.281Z,12.00
2018-06-25T07:17:14.219Z,12.80
2018-06-25T07:18:14.153Z,12.00
2018-06-25T07:19:14.093Z,13.90
2018-06-25T07:20:14.044Z,14.70
2018-06-25T07:21:13.966Z,14.50
2018-06-25T07:22:13.906Z,12.50
2018-06-25T07:23:13.862Z,13.10
2018-06-25T07:24:13.782Z,12.70
2018-06-25T07:25:13.720Z,12.30
2018-06-25T07:26:13.655Z,12.40
2018-06-25T07:27:13.612Z,13.10
2018-06-25T07:28:13.531Z,14.20
2018-06-25T07:29:13.545Z,13.20
2018-06-25T07:30:13.421Z,13.60
2018-06-25T07:31:13.344Z,14.40
2018-06-25T07:32:13.284Z,14.20
2018-06-25T07:33:13.220Z,14.10
2018-06-25T07:34:13.159Z,13.90
2018-06-25T07:35:13.101Z,13.40
2018-06-25T07:36:13.032Z,13.00
2018-06-25T07:37:12.970Z,13.70
2018-06-25T07:38:12.915Z,12.00
2018-06-25T07:39:12.843Z,12.30
2018-06-25T07:40:12.782Z,10.40
2018-06-25T07:41:12.722Z,11.10
2018-06-25T07:42:12.658Z,11.60
2018-06-25T07:43:12.601Z,12.20
2018-06-25T07:44:12.551Z,11.70
2018-06-25T07:45:12.475Z,11.60
2018-06-25T07:46:12.402Z,11.90
2018-06-25T07:47:12.424Z,10.90
2018-06-25T07:48:12.287Z,11.60
2018-06-25T07:49:12.218Z,11.60
2018-06-25T07:50:12.195Z,13.30
2018-06-25T07:51:12.108Z,11.70
2018-06-25T07:52:12.041Z,12.30
2018-06-25T07:53:11.978Z,13.10
2018-06-25T07:54:11.927Z,13.10
2018-06-25T07:55:11.850Z,11.10
2018-06-25T07:56:11.788Z,11.50
2018-06-25T07:57:11.726Z,12.50
2018-06-25T07:58:11.664Z,11.80
2018-06-25T07:59:11.707Z,11.70
2018-06-25T08:00:11.542Z,9.70
2018-06-25T08:01:11.473Z,10.20
2018-06-25T08:02:11.416Z,10.00
2018-06-25T08:03:11.368Z,11.20
2018-06-25T08:04:11.282Z,11.80
2018-06-25T08:05:11.238Z,11.40
2018-06-25T08:06:11.214Z,11.30
2018-06-25T08:07:11.104Z,10.60
2018-06-25T08:08:11.040Z,10.10
2018-06-25T08:09:10.996Z,9.70
2018-06-25T08:10:10.978Z,11.50
2018-06-25T08:11:10.850Z,10.90
2018-06-25T08:12:10.803Z,11.80
2018-06-25T08:13:10.726Z,11.90
2018-06-25T08:14:10.663Z,11.90
2018-06-25T08:15:10.612Z,13.00
2018-06-25T08:16:10.573Z,29.70
2018-06-25T08:17:10.477Z,82.70
2018-06-25T08:18:10.412Z,39.90
2018-06-25T08:19:10.369Z,38.10
2018-06-25T08:20:10.291Z,28.00
2018-06-25T08:21:10.224Z,40.00
2018-06-25T08:22:10.176Z,40.10
2018-06-25T08:23:10.105Z,22.30
2018-06-25T08:24:10.041Z,36.90
2018-06-25T08:25:10.019Z,50.10
2018-06-25T08:26:09.926Z,52.60
2018-06-25T08:27:09.857Z,42.80
2018-06-25T08:28:09.809Z,57.70
2018-06-25T08:29:09.739Z,32.10
2018-06-25T08:30:09.693Z,35.80
2018-06-25T08:31:09.618Z,31.20
2018-06-25T08:32:09.553Z,31.50
2018-06-25T08:33:09.484Z,24.90
2018-06-25T08:34:09.487Z,27.60
2018-06-25T08:35:09.385Z,23.30
2018-06-25T08:36:09.298Z,30.80
2018-06-25T08:37:09.332Z,22.00
2018-06-25T08:38:09.184Z,25.30
2018-06-25T08:39:09.152Z,18.50
2018-06-25T08:40:09.115Z,20.30
2018-06-25T08:42:37.705Z,20.10
2018-06-25T08:43:36.315Z,20.00
2018-06-25T08:45:30.509Z,19.80
2018-06-25T08:46:31.028Z,15.80
2018-06-25T08:48:24.949Z,14.30
2018-06-25T08:49:24.544Z,10.20
2018-06-25T08:51:17.878Z,11.60
2018-06-25T08:52:17.786Z,14.40
2018-06-25T08:53:17.719Z,19.20
2018-06-25T08:54:17.723Z,21.50
2018-06-25T08:55:17.638Z,27.90
2018-06-25T08:56:17.538Z,21.40
2018-06-25T08:57:18.456Z,18.90
2018-06-25T08:58:17.416Z,17.00
2018-06-25T08:59:17.356Z,19.00
2018-06-25T09:00:17.300Z,32.00
2018-06-25T09:01:17.291Z,16.90
2018-06-25T09:02:17.917Z,24.90
2018-06-25T09:03:17.181Z,24.70
2018-06-25T09:04:17.095Z,20.50
2018-06-25T09:05:17.088Z,18.80
2018-06-25T09:06:16.974Z,18.70
2018-06-25T09:07:16.876Z,19.20
2018-06-25T09:08:16.806Z,13.70
2018-06-25T09:09:16.764Z,14.70
2018-06-25T09:10:16.694Z,19.80
2018-06-25T09:11:16.648Z,15.40
2018-06-25T09:12:16.589Z,18.90
2018-06-25T09:13:16.510Z,16.00
2018-06-25T09:14:16.474Z,14.80
2018-06-25T09:15:16.423Z,14.90
2018-06-25T09:16:16.326Z,14.10
2018-06-25T09:17:16.289Z,12.20
2018-06-25T09:18:16.218Z,11.50
2018-06-25T09:19:16.153Z,16.80
2018-06-25T09:20:16.108Z,10.00
2018-06-25T09:21:16.043Z,13.30
2018-06-25T09:22:15.979Z,13.40
2018-06-25T09:23:15.927Z,15.60
2018-06-25T09:24:15.857Z,12.90
2018-06-25T09:25:15.797Z,10.90
2018-06-25T09:26:15.747Z,12.40
2018-06-25T09:27:15.675Z,12.90
2018-06-25T09:28:15.639Z,11.10
2018-06-25T09:29:15.574Z,10.30
2018-06-25T09:30:15.508Z,11.20
2018-06-25T09:31:15.458Z,11.10
2018-06-25T09:32:15.595Z,10.80
2018-06-25T09:33:15.311Z,10.00
2018-06-25T09:34:15.246Z,9.20
2018-06-25T09:35:15.221Z,10.40
2018-06-25T09:36:15.142Z,8.60
2018-06-25T09:37:15.081Z,9.40
2018-06-25T09:38:15.009Z,8.80
2018-06-25T09:39:14.971Z,11.40
2018-06-25T09:40:14.913Z,9.50
2018-06-25T09:41:14.863Z,10.60
2018-06-25T09:42:14.772Z,11.80
2018-06-25T09:43:14.722Z,10.00
2018-06-25T09:44:14.661Z,9.80
2018-06-25T09:45:14.596Z,10.50
2018-06-25T09:46:14.549Z,10.40
2018-06-25T09:47:14.472Z,10.20
2018-06-25T09:48:14.415Z,10.30
2018-06-25T09:49:14.356Z,10.60
2018-06-25T09:50:14.301Z,9.70
2018-06-25T09:51:14.239Z,8.40
2018-06-25T09:52:14.933Z,7.90
2018-06-25T09:53:14.132Z,7.50
2018-06-25T09:54:14.087Z,8.20
2018-06-25T09:55:13.999Z,8.90
2018-06-25T09:56:13.991Z,8.40
2018-06-25T09:57:13.896Z,9.80
2018-06-25T09:58:13.818Z,9.50
2018-06-25T09:59:13.780Z,10.00
2018-06-25T10:00:13.729Z,8.70
2018-06-25T10:01:13.664Z,7.90
2018-06-25T10:02:13.603Z,7.40
2018-06-25T10:03:13.581Z,7.50
2018-06-25T10:04:13.485Z,7.90
2018-06-25T10:05:13.447Z,9.00
2018-06-25T10:06:13.363Z,7.40
2018-06-25T10:07:13.296Z,8.20
2018-06-25T10:08:13.264Z,7.40
2018-06-25T10:09:13.179Z,8.70
2018-06-25T10:10:13.121Z,9.20
2018-06-25T10:11:13.068Z,22.40
2018-06-25T10:12:13.951Z,23.00
2018-06-25T10:13:12.953Z,16.80
2018-06-25T10:14:12.913Z,18.80
2018-06-25T10:15:12.834Z,31.10
2018-06-25T10:16:12.769Z,17.70
2018-06-25T10:17:12.722Z,7.90
2018-06-25T10:18:12.709Z,8.00
2018-06-25T10:19:12.656Z,8.30
2018-06-25T10:20:12.535Z,7.60
2018-06-25T10:21:12.497Z,8.00
2018-06-25T10:22:12.429Z,7.90
2018-06-25T10:23:12.363Z,8.10
2018-06-25T10:24:12.301Z,6.90
2018-06-25T10:25:12.251Z,7.10
2018-06-25T10:26:12.189Z,7.30
2018-06-25T10:27:12.969Z,8.50
2018-06-25T10:28:12.084Z,8.00
2018-06-25T10:29:12.007Z,8.00
2018-06-25T10:30:11.952Z,7.60
2018-06-25T10:31:11.892Z,7.30
2018-06-25T10:32:11.833Z,7.20
2018-06-25T10:33:11.774Z,7.20
2018-06-25T10:34:11.720Z,7.00
2018-06-25T10:35:11.662Z,8.30
2018-06-25T10:36:11.610Z,7.30
2018-06-25T10:37:11.547Z,7.00
2018-06-25T10:38:11.484Z,7.70
2018-06-25T10:39:11.427Z,7.20
2018-06-25T10:40:11.372Z,7.40
2018-06-25T10:41:11.310Z,9.00
2018-06-25T10:42:11.367Z,7.60
2018-06-25T10:43:11.194Z,7.20
2018-06-25T10:44:11.138Z,6.60
2018-06-25T10:45:11.076Z,6.80
2018-06-25T10:46:11.024Z,6.00
2018-06-25T10:47:10.963Z,6.50
2018-06-25T10:48:10.908Z,6.10
2018-06-25T10:49:10.844Z,6.30
2018-06-25T10:50:10.789Z,5.40
2018-06-25T10:51:10.737Z,5.90
2018-06-25T10:52:10.672Z,6.10
2018-06-25T10:53:10.619Z,5.70
2018-06-25T10:54:10.559Z,6.90
2018-06-25T10:55:10.502Z,10.10
2018-06-25T10:56:10.450Z,12.30
2018-06-25T10:57:10.389Z,8.50
2018-06-25T10:58:10.362Z,9.70
2018-06-25T10:59:10.275Z,6.50
2018-06-25T11:00:10.520Z,5.80
2018-06-25T11:01:10.247Z,4.60
2018-06-25T11:02:10.101Z,4.60
2018-06-25T11:03:10.041Z,4.80
2018-06-25T11:04:09.995Z,4.90
2018-06-25T11:05:09.944Z,4.60
2018-06-25T11:06:09.913Z,4.70
2018-06-25T11:07:09.887Z,4.20
2018-06-25T11:08:09.762Z,5.10
2018-06-25T11:09:09.707Z,5.00
2018-06-25T11:10:09.653Z,5.10
2018-06-25T11:11:09.588Z,5.80
2018-06-25T11:12:09.553Z,5.50
2018-06-25T11:13:09.483Z,5.30
2018-06-25T11:14:09.422Z,4.70
2018-06-25T11:15:09.367Z,4.60
2018-06-25T11:16:09.309Z,5.00
2018-06-25T11:17:09.253Z,5.10
2018-06-25T11:18:09.214Z,4.20
2018-06-25T11:19:09.150Z,4.30
2018-06-25T11:20:09.085Z,4.90
2018-06-25T11:21:09.026Z,4.20
2018-06-25T11:22:08.971Z,4.50
2018-06-25T11:23:08.917Z,6.00
2018-06-25T11:24:08.859Z,6.70
2018-06-25T11:25:08.808Z,6.10
2018-06-25T11:26:08.747Z,22.80
2018-06-25T11:27:08.801Z,17.30
2018-06-25T11:28:08.641Z,4.00
2018-06-25T11:29:08.584Z,3.90
2018-06-25T11:30:08.537Z,4.20
2018-06-25T11:31:08.480Z,3.90
2018-06-25T11:32:08.425Z,3.70
2018-06-25T11:33:08.370Z,3.30
2018-06-25T11:34:08.313Z,3.80
2018-06-25T11:35:08.273Z,3.70
2018-06-25T11:36:08.209Z,4.00
2018-06-25T11:37:08.161Z,3.60
2018-06-25T11:38:08.105Z,3.80
2018-06-25T11:39:08.055Z,4.10
2018-06-25T11:40:08.010Z,4.00
2018-06-25T11:41:07.951Z,4.00
2018-06-25T11:42:07.902Z,7.00
2018-06-25T11:43:07.852Z,7.20
2018-06-25T11:44:07.804Z,7.00
2018-06-25T11:45:07.753Z,3.70
2018-06-25T11:46:07.706Z,4.80
2018-06-25T11:47:07.657Z,4.10
2018-06-25T11:48:07.600Z,3.50
2018-06-25T11:49:07.550Z,3.50
2018-06-25T11:50:07.508Z,3.80
2018-06-25T11:51:07.453Z,4.20
2018-06-25T11:52:07.405Z,4.00
2018-06-25T11:53:07.370Z,3.90
2018-06-25T11:54:07.302Z,3.60
2018-06-25T11:55:07.250Z,4.10
2018-06-25T11:56:07.198Z,3.90
2018-06-25T11:57:07.139Z,4.20
2018-06-25T11:58:07.093Z,4.10
2018-06-25T11:59:07.037Z,4.40
2018-06-25T12:00:07.028Z,3.90
2018-06-25T12:01:06.955Z,4.20
2018-06-25T12:02:06.951Z,4.70
2018-06-25T12:03:07.007Z,4.50
2018-06-25T12:04:06.797Z,3.90
2018-06-25T12:05:06.731Z,3.60
2018-06-25T12:06:06.664Z,4.00
2018-06-25T12:07:06.621Z,3.70
2018-06-25T12:08:06.562Z,3.70
2018-06-25T12:09:06.514Z,4.50
2018-06-25T12:10:06.466Z,3.80
2018-06-25T12:11:06.417Z,3.80
2018-06-25T12:12:06.425Z,3.70
2018-06-25T12:13:06.312Z,3.40
2018-06-25T12:14:06.300Z,3.70
2018-06-25T12:15:06.212Z,4.00
2018-06-25T12:16:06.175Z,3.60
2018-06-25T12:17:06.116Z,3.20
2018-06-25T12:18:06.070Z,3.70
2018-06-25T12:19:06.044Z,4.20
2018-06-25T12:20:05.992Z,3.60
2018-06-25T12:21:05.909Z,3.60
2018-06-25T12:22:05.860Z,3.30
2018-06-25T12:23:05.851Z,3.30
2018-06-25T12:24:05.760Z,3.70
2018-06-25T12:25:05.726Z,3.70
2018-06-25T12:26:05.655Z,3.60
2018-06-25T12:27:05.604Z,3.80
2018-06-25T12:28:05.563Z,3.40
2018-06-25T12:29:05.502Z,3.90
2018-06-25T12:30:05.521Z,4.20
2018-06-25T12:31:05.405Z,3.90
2018-06-25T12:32:05.395Z,3.50
2018-06-25T12:33:05.291Z,3.30
2018-06-25T12:34:05.254Z,3.40
2018-06-25T12:35:05.252Z,3.50
2018-06-25T12:36:05.150Z,3.00
2018-06-25T12:37:05.097Z,3.10
2018-06-25T12:38:05.045Z,3.60
2018-06-25T12:39:04.993Z,3.30
2018-06-25T12:40:04.952Z,3.20
2018-06-25T12:41:04.887Z,3.40
2018-06-25T12:42:04.847Z,3.60
2018-06-25T12:43:04.806Z,4.00
2018-06-25T12:44:04.759Z,3.90
2018-06-25T12:45:04.694Z,3.40
2018-06-25T12:46:04.635Z,4.70
2018-06-25T12:47:04.583Z,4.10
2018-06-25T12:48:04.534Z,3.50
2018-06-25T12:49:04.485Z,3.80
2018-06-25T12:50:04.428Z,3.90
2018-06-25T12:51:04.374Z,3.80
2018-06-25T12:52:04.324Z,4.00
2018-06-25T12:53:04.272Z,3.60
2018-06-25T12:54:04.235Z,3.50
2018-06-25T12:55:04.186Z,3.50
2018-06-25T12:56:04.128Z,3.60
2018-06-25T12:57:04.086Z,3.80
2018-06-25T12:58:04.011Z,4.30
2018-06-25T12:59:03.968Z,3.60
2018-06-25T13:00:03.910Z,4.20
2018-06-25T13:01:03.854Z,3.40
2018-06-25T13:02:03.827Z,3.40
2018-06-25T13:03:03.777Z,3.90
2018-06-25T13:04:03.701Z,3.50
2018-06-25T13:05:03.645Z,3.80
2018-06-25T13:06:03.597Z,3.50
2018-06-25T13:07:03.543Z,3.00
2018-06-25T13:08:03.492Z,3.20
2018-06-25T13:09:03.481Z,3.40
2018-06-25T13:10:03.380Z,3.20
2018-06-25T13:11:03.335Z,3.10
2018-06-25T13:12:03.281Z,3.60
2018-06-25T13:13:03.228Z,3.10
2018-06-25T13:14:03.183Z,3.20